sensor_id;sensor_type;location;lat;lon;timestamp;P1;durP1;ratioP1;P2;durP2;ratioP2
23346;SDS011;36852;45.466;11.066;2024-02-04T00:27:48;127.87;;;65.92;;
23346;SDS011;36852;45.466;11.066;2024-02-04T00:30:23;126.80;;;67.35;;
23346;SDS011;36852;45.466;11.066;2024-02-04T00:33:15;113.55;;;62.27;;
23346;SDS011;36852;45.466;11.066;2024-02-04T00:36:04;111.15;;;62.00;;
23346;SDS011;36852;45.466;11.066;2024-02-04T00:39:00;121.20;;;62.95;;
23346;SDS011;36852;45.466;11.066;2024-02-04T00:41:52;118.00;;;63.08;;
23346;SDS011;36852;45.466;11.066;2024-02-04T00:44:44;117.45;;;61.75;;
23346;SDS011;36852;45.466;11.066;2024-02-04T00:47:34;115.85;;;63.38;;
23346;SDS011;36852;45.466;11.066;2024-02-04T00:50:26;123.25;;;67.87;;
23346;SDS011;36852;45.466;11.066;2024-02-04T00:53:19;117.03;;;64.03;;
23346;SDS011;36852;45.466;11.066;2024-02-04T00:56:06;124.78;;;64.87;;
23346;SDS011;36852;45.466;11.066;2024-02-04T00:59:07;125.72;;;66.85;;
23346;SDS011;36852;45.466;11.066;2024-02-04T01:02:00;116.00;;;64.15;;
23346;SDS011;36852;45.466;11.066;2024-02-04T01:04:51;125.42;;;66.77;;
23346;SDS011;36852;45.466;11.066;2024-02-04T01:07:44;117.87;;;61.02;;
23346;SDS011;36852;45.466;11.066;2024-02-04T01:10:39;116.62;;;61.37;;
23346;SDS011;36852;45.466;11.066;2024-02-04T01:13:30;122.62;;;65.25;;
23346;SDS011;36852;45.466;11.066;2024-02-04T01:16:24;115.95;;;63.85;;
23346;SDS011;36852;45.466;11.066;2024-02-04T01:19:11;119.77;;;65.03;;
23346;SDS011;36852;45.466;11.066;2024-02-04T01:22:05;109.75;;;61.40;;
23346;SDS011;36852;45.466;11.066;2024-02-04T01:25:04;116.28;;;63.10;;
23346;SDS011;36852;45.466;11.066;2024-02-04T01:28:05;114.30;;;61.40;;
23346;SDS011;36852;45.466;11.066;2024-02-04T01:30:59;114.05;;;62.30;;
23346;SDS011;36852;45.466;11.066;2024-02-04T01:33:58;120.60;;;62.33;;
23346;SDS011;36852;45.466;11.066;2024-02-04T01:36:50;118.33;;;63.15;;
23346;SDS011;36852;45.466;11.066;2024-02-04T01:39:43;115.72;;;63.10;;
23346;SDS011;36852;45.466;11.066;2024-02-04T01:42:34;110.75;;;60.15;;
23346;SDS011;36852;45.466;11.066;2024-02-04T01:45:37;127.67;;;64.17;;
23346;SDS011;36852;45.466;11.066;2024-02-04T01:48:42;112.32;;;60.15;;
23346;SDS011;36852;45.466;11.066;2024-02-04T01:51:32;114.45;;;60.23;;
23346;SDS011;36852;45.466;11.066;2024-02-04T01:54:25;119.10;;;63.52;;
23346;SDS011;36852;45.466;11.066;2024-02-04T01:57:22;115.80;;;60.83;;
23346;SDS011;36852;45.466;11.066;2024-02-04T02:00:33;118.65;;;60.25;;
23346;SDS011;36852;45.466;11.066;2024-02-04T02:03:28;116.42;;;61.42;;
23346;SDS011;36852;45.466;11.066;2024-02-04T02:06:25;124.02;;;64.25;;
23346;SDS011;36852;45.466;11.066;2024-02-04T02:09:28;124.75;;;65.85;;
23346;SDS011;36852;45.466;11.066;2024-02-04T02:12:21;116.65;;;62.43;;
23346;SDS011;36852;45.466;11.066;2024-02-04T02:23:48;137.70;;;67.20;;
23346;SDS011;36852;45.466;11.066;2024-02-04T02:26:52;123.33;;;63.10;;
23346;SDS011;36852;45.466;11.066;2024-02-04T02:29:26;117.10;;;61.18;;
23346;SDS011;36852;45.466;11.066;2024-02-04T02:32:16;116.12;;;62.73;;
23346;SDS011;36852;45.466;11.066;2024-02-04T02:35:10;125.55;;;66.40;;
23346;SDS011;36852;45.466;11.066;2024-02-04T02:41:23;116.57;;;62.98;;
23346;SDS011;36852;45.466;11.066;2024-02-04T02:44:11;119.10;;;62.03;;
23346;SDS011;36852;45.466;11.066;2024-02-04T02:47:04;123.50;;;63.85;;
23346;SDS011;36852;45.466;11.066;2024-02-04T02:49:56;119.33;;;65.37;;
23346;SDS011;36852;45.466;11.066;2024-02-04T02:52:46;124.50;;;66.40;;
23346;SDS011;36852;45.466;11.066;2024-02-04T02:55:34;135.25;;;69.53;;
23346;SDS011;36852;45.466;11.066;2024-02-04T02:58:27;125.02;;;61.90;;
23346;SDS011;36852;45.466;11.066;2024-02-04T03:01:21;118.77;;;61.23;;
23346;SDS011;36852;45.466;11.066;2024-02-04T03:04:15;115.40;;;61.45;;
23346;SDS011;36852;45.466;11.066;2024-02-04T03:07:09;123.38;;;64.32;;
23346;SDS011;36852;45.466;11.066;2024-02-04T03:10:11;122.98;;;65.67;;
23346;SDS011;36852;45.466;11.066;2024-02-04T03:13:06;129.40;;;67.37;;
23346;SDS011;36852;45.466;11.066;2024-02-04T03:15:56;122.92;;;66.30;;
23346;SDS011;36852;45.466;11.066;2024-02-04T03:18:45;128.32;;;68.25;;
23346;SDS011;36852;45.466;11.066;2024-02-04T03:21:36;120.92;;;63.58;;
23346;SDS011;36852;45.466;11.066;2024-02-04T03:24:28;130.78;;;68.50;;
23346;SDS011;36852;45.466;11.066;2024-02-04T03:27:23;126.40;;;64.95;;
23346;SDS011;36852;45.466;11.066;2024-02-04T03:30:18;119.80;;;64.62;;
23346;SDS011;36852;45.466;11.066;2024-02-04T03:33:10;125.50;;;66.25;;
23346;SDS011;36852;45.466;11.066;2024-02-04T03:35:58;126.72;;;68.95;;
23346;SDS011;36852;45.466;11.066;2024-02-04T03:38:30;126.15;;;68.52;;
23346;SDS011;36852;45.466;11.066;2024-02-04T03:41:17;131.37;;;67.82;;
23346;SDS011;36852;45.466;11.066;2024-02-04T03:44:08;133.35;;;68.67;;
23346;SDS011;36852;45.466;11.066;2024-02-04T03:47:00;143.45;;;71.12;;
23346;SDS011;36852;45.466;11.066;2024-02-04T03:49:55;131.67;;;65.17;;
23346;SDS011;36852;45.466;11.066;2024-02-04T03:52:51;124.58;;;66.00;;
23346;SDS011;36852;45.466;11.066;2024-02-04T03:55:42;124.67;;;66.10;;
23346;SDS011;36852;45.466;11.066;2024-02-04T03:58:38;123.38;;;65.32;;
23346;SDS011;36852;45.466;11.066;2024-02-04T04:01:27;125.35;;;65.90;;
23346;SDS011;36852;45.466;11.066;2024-02-04T04:04:16;129.35;;;66.85;;
23346;SDS011;36852;45.466;11.066;2024-02-04T04:07:13;117.28;;;63.08;;
23346;SDS011;36852;45.466;11.066;2024-02-04T04:10:03;121.13;;;63.73;;
23346;SDS011;36852;45.466;11.066;2024-02-04T04:13:04;125.72;;;64.07;;
23346;SDS011;36852;45.466;11.066;2024-02-04T04:15:51;119.77;;;61.40;;
23346;SDS011;36852;45.466;11.066;2024-02-04T04:21:49;113.77;;;60.67;;
23346;SDS011;36852;45.466;11.066;2024-02-04T04:24:59;123.58;;;64.22;;
23346;SDS011;36852;45.466;11.066;2024-02-04T04:27:59;115.62;;;60.67;;
23346;SDS011;36852;45.466;11.066;2024-02-04T04:30:48;117.93;;;57.80;;
23346;SDS011;36852;45.466;11.066;2024-02-04T04:33:44;118.22;;;59.15;;
23346;SDS011;36852;45.466;11.066;2024-02-04T04:36:33;111.95;;;59.38;;
23346;SDS011;36852;45.466;11.066;2024-02-04T04:39:22;107.12;;;56.08;;
23346;SDS011;36852;45.466;11.066;2024-02-04T04:42:14;115.60;;;61.37;;
23346;SDS011;36852;45.466;11.066;2024-02-04T04:45:08;115.37;;;59.38;;
23346;SDS011;36852;45.466;11.066;2024-02-04T04:47:59;114.90;;;62.38;;
23346;SDS011;36852;45.466;11.066;2024-02-04T04:50:50;123.28;;;60.12;;
23346;SDS011;36852;45.466;11.066;2024-02-04T04:53:18;116.62;;;61.28;;
23346;SDS011;36852;45.466;11.066;2024-02-04T04:55:47;112.50;;;61.77;;
23346;SDS011;36852;45.466;11.066;2024-02-04T04:58:15;117.28;;;57.23;;
23346;SDS011;36852;45.466;11.066;2024-02-04T05:00:44;121.90;;;59.77;;
23346;SDS011;36852;45.466;11.066;2024-02-04T05:03:12;112.97;;;60.10;;
23346;SDS011;36852;45.466;11.066;2024-02-04T05:05:40;115.10;;;59.67;;
23346;SDS011;36852;45.466;11.066;2024-02-04T05:08:07;115.85;;;58.75;;
23346;SDS011;36852;45.466;11.066;2024-02-04T05:10:35;118.42;;;61.02;;
23346;SDS011;36852;45.466;11.066;2024-02-04T05:13:03;122.60;;;58.63;;
23346;SDS011;36852;45.466;11.066;2024-02-04T05:15:37;131.03;;;63.73;;
23346;SDS011;36852;45.466;11.066;2024-02-04T05:18:06;131.50;;;66.57;;
23346;SDS011;36852;45.466;11.066;2024-02-04T05:20:34;132.55;;;64.72;;
23346;SDS011;36852;45.466;11.066;2024-02-04T05:23:05;119.25;;;60.25;;
23346;SDS011;36852;45.466;11.066;2024-02-04T05:25:33;124.78;;;61.88;;
23346;SDS011;36852;45.466;11.066;2024-02-04T05:28:01;124.00;;;62.43;;
23346;SDS011;36852;45.466;11.066;2024-02-04T05:30:30;123.25;;;61.75;;
23346;SDS011;36852;45.466;11.066;2024-02-04T05:32:58;119.80;;;58.63;;
23346;SDS011;36852;45.466;11.066;2024-02-04T05:35:27;119.22;;;59.20;;
23346;SDS011;36852;45.466;11.066;2024-02-04T05:37:55;119.35;;;61.92;;
23346;SDS011;36852;45.466;11.066;2024-02-04T05:40:22;124.25;;;64.00;;
23346;SDS011;36852;45.466;11.066;2024-02-04T05:42:53;123.65;;;63.42;;
23346;SDS011;36852;45.466;11.066;2024-02-04T05:45:21;119.35;;;59.58;;
23346;SDS011;36852;45.466;11.066;2024-02-04T05:47:49;113.17;;;59.00;;
23346;SDS011;36852;45.466;11.066;2024-02-04T05:50:18;122.85;;;60.78;;
23346;SDS011;36852;45.466;11.066;2024-02-04T05:52:45;122.00;;;61.53;;
23346;SDS011;36852;45.466;11.066;2024-02-04T05:55:13;128.55;;;62.45;;
23346;SDS011;36852;45.466;11.066;2024-02-04T05:57:43;119.77;;;61.23;;
23346;SDS011;36852;45.466;11.066;2024-02-04T06:00:11;118.77;;;57.85;;
23346;SDS011;36852;45.466;11.066;2024-02-04T06:02:40;120.28;;;58.02;;
23346;SDS011;36852;45.466;11.066;2024-02-04T06:05:14;118.72;;;56.90;;
23346;SDS011;36852;45.466;11.066;2024-02-04T06:07:42;121.92;;;60.43;;
23346;SDS011;36852;45.466;11.066;2024-02-04T06:10:11;124.15;;;62.20;;
23346;SDS011;36852;45.466;11.066;2024-02-04T06:12:42;120.62;;;59.50;;
23346;SDS011;36852;45.466;11.066;2024-02-04T06:15:12;115.77;;;58.00;;
23346;SDS011;36852;45.466;11.066;2024-02-04T06:17:42;122.10;;;58.08;;
23346;SDS011;36852;45.466;11.066;2024-02-04T06:20:11;113.05;;;56.88;;
23346;SDS011;36852;45.466;11.066;2024-02-04T06:22:38;122.33;;;59.73;;
23346;SDS011;36852;45.466;11.066;2024-02-04T06:25:06;112.32;;;55.25;;
23346;SDS011;36852;45.466;11.066;2024-02-04T06:27:37;120.08;;;59.35;;
23346;SDS011;36852;45.466;11.066;2024-02-04T06:30:05;121.92;;;58.50;;
23346;SDS011;36852;45.466;11.066;2024-02-04T06:32:35;124.30;;;57.90;;
23346;SDS011;36852;45.466;11.066;2024-02-04T06:35:04;114.28;;;57.40;;
23346;SDS011;36852;45.466;11.066;2024-02-04T06:37:33;122.33;;;58.65;;
23346;SDS011;36852;45.466;11.066;2024-02-04T06:40:03;114.20;;;56.25;;
23346;SDS011;36852;45.466;11.066;2024-02-04T06:42:31;113.77;;;56.63;;
23346;SDS011;36852;45.466;11.066;2024-02-04T06:44:59;114.70;;;56.18;;
23346;SDS011;36852;45.466;11.066;2024-02-04T06:47:28;112.90;;;58.15;;
23346;SDS011;36852;45.466;11.066;2024-02-04T06:49:56;108.50;;;54.67;;
23346;SDS011;36852;45.466;11.066;2024-02-04T06:52:25;117.77;;;57.33;;
23346;SDS011;36852;45.466;11.066;2024-02-04T06:54:53;112.12;;;57.23;;
23346;SDS011;36852;45.466;11.066;2024-02-04T06:57:21;112.00;;;55.38;;
23346;SDS011;36852;45.466;11.066;2024-02-04T06:59:49;112.32;;;57.67;;
23346;SDS011;36852;45.466;11.066;2024-02-04T07:02:22;108.67;;;55.20;;
23346;SDS011;36852;45.466;11.066;2024-02-04T07:04:52;107.10;;;53.35;;
23346;SDS011;36852;45.466;11.066;2024-02-04T07:07:21;106.87;;;53.98;;
23346;SDS011;36852;45.466;11.066;2024-02-04T07:09:57;103.53;;;53.73;;
23346;SDS011;36852;45.466;11.066;2024-02-04T07:12:23;110.75;;;56.70;;
23346;SDS011;36852;45.466;11.066;2024-02-04T07:14:52;106.52;;;57.08;;
23346;SDS011;36852;45.466;11.066;2024-02-04T07:17:23;101.25;;;53.87;;
23346;SDS011;36852;45.466;11.066;2024-02-04T07:19:52;104.72;;;55.83;;
23346;SDS011;36852;45.466;11.066;2024-02-04T07:22:20;108.12;;;57.98;;
23346;SDS011;36852;45.466;11.066;2024-02-04T07:24:51;96.12;;;52.60;;
23346;SDS011;36852;45.466;11.066;2024-02-04T07:27:23;103.75;;;53.55;;
23346;SDS011;36852;45.466;11.066;2024-02-04T07:29:51;99.10;;;53.55;;
23346;SDS011;36852;45.466;11.066;2024-02-04T07:32:20;106.03;;;55.00;;
23346;SDS011;36852;45.466;11.066;2024-02-04T07:34:57;92.12;;;50.52;;
23346;SDS011;36852;45.466;11.066;2024-02-04T07:37:26;98.72;;;49.27;;
23346;SDS011;36852;45.466;11.066;2024-02-04T07:39:54;99.75;;;52.67;;
23346;SDS011;36852;45.466;11.066;2024-02-04T07:42:24;97.27;;;50.80;;
23346;SDS011;36852;45.466;11.066;2024-02-04T07:44:52;98.22;;;51.92;;
23346;SDS011;36852;45.466;11.066;2024-02-04T07:47:20;95.70;;;51.60;;
23346;SDS011;36852;45.466;11.066;2024-02-04T07:49:48;92.65;;;51.83;;
23346;SDS011;36852;45.466;11.066;2024-02-04T07:52:18;89.65;;;49.93;;
23346;SDS011;36852;45.466;11.066;2024-02-04T07:54:46;90.32;;;51.15;;
23346;SDS011;36852;45.466;11.066;2024-02-04T07:57:16;92.62;;;51.18;;
23346;SDS011;36852;45.466;11.066;2024-02-04T07:59:46;99.60;;;57.33;;
23346;SDS011;36852;45.466;11.066;2024-02-04T08:02:14;89.37;;;49.95;;
23346;SDS011;36852;45.466;11.066;2024-02-04T08:04:45;89.92;;;50.15;;
23346;SDS011;36852;45.466;11.066;2024-02-04T08:07:13;81.95;;;48.45;;
23346;SDS011;36852;45.466;11.066;2024-02-04T08:09:42;90.03;;;49.45;;
23346;SDS011;36852;45.466;11.066;2024-02-04T08:12:10;86.35;;;48.33;;
23346;SDS011;36852;45.466;11.066;2024-02-04T08:14:40;81.65;;;46.95;;
23346;SDS011;36852;45.466;11.066;2024-02-04T08:17:08;88.90;;;49.88;;
23346;SDS011;36852;45.466;11.066;2024-02-04T08:19:46;87.25;;;49.18;;
23346;SDS011;36852;45.466;11.066;2024-02-04T08:22:12;92.37;;;50.48;;
23346;SDS011;36852;45.466;11.066;2024-02-04T08:24:57;90.53;;;48.40;;
23346;SDS011;36852;45.466;11.066;2024-02-04T08:27:28;86.40;;;49.10;;
23346;SDS011;36852;45.466;11.066;2024-02-04T08:30:18;94.67;;;49.95;;
23346;SDS011;36852;45.466;11.066;2024-02-04T08:35:41;106.87;;;61.05;;
23346;SDS011;36852;45.466;11.066;2024-02-04T08:38:18;103.83;;;60.63;;
23346;SDS011;36852;45.466;11.066;2024-02-04T08:41:11;100.78;;;60.45;;
23346;SDS011;36852;45.466;11.066;2024-02-04T08:44:00;109.63;;;66.02;;
23346;SDS011;36852;45.466;11.066;2024-02-04T08:46:47;110.60;;;65.10;;
23346;SDS011;36852;45.466;11.066;2024-02-04T08:49:37;108.52;;;63.42;;
23346;SDS011;36852;45.466;11.066;2024-02-04T08:52:09;110.42;;;64.47;;
23346;SDS011;36852;45.466;11.066;2024-02-04T08:55:14;113.20;;;66.28;;
23346;SDS011;36852;45.466;11.066;2024-02-04T08:58:02;104.95;;;61.83;;
23346;SDS011;36852;45.466;11.066;2024-02-04T09:00:50;111.60;;;63.42;;
23346;SDS011;36852;45.466;11.066;2024-02-04T09:03:37;113.80;;;71.45;;
23346;SDS011;36852;45.466;11.066;2024-02-04T09:06:05;115.85;;;70.90;;
23346;SDS011;36852;45.466;11.066;2024-02-04T09:08:34;109.22;;;63.25;;
23346;SDS011;36852;45.466;11.066;2024-02-04T09:11:03;98.33;;;58.90;;
23346;SDS011;36852;45.466;11.066;2024-02-04T09:13:32;96.55;;;56.95;;
23346;SDS011;36852;45.466;11.066;2024-02-04T09:16:03;99.07;;;59.77;;
23346;SDS011;36852;45.466;11.066;2024-02-04T09:18:32;97.33;;;60.88;;
23346;SDS011;36852;45.466;11.066;2024-02-04T09:21:01;92.53;;;57.23;;
23346;SDS011;36852;45.466;11.066;2024-02-04T09:23:31;91.78;;;58.55;;
23346;SDS011;36852;45.466;11.066;2024-02-04T09:26:01;93.80;;;59.45;;
23346;SDS011;36852;45.466;11.066;2024-02-04T09:28:38;91.72;;;58.40;;
23346;SDS011;36852;45.466;11.066;2024-02-04T09:44:56;87.65;;;58.58;;
23346;SDS011;36852;45.466;11.066;2024-02-04T09:48:04;78.67;;;55.92;;
23346;SDS011;36852;45.466;11.066;2024-02-04T09:50:59;82.85;;;55.95;;
23346;SDS011;36852;45.466;11.066;2024-02-04T09:53:51;83.20;;;56.58;;
23346;SDS011;36852;45.466;11.066;2024-02-04T09:56:41;84.00;;;55.63;;
23346;SDS011;36852;45.466;11.066;2024-02-04T09:59:35;87.80;;;59.40;;
23346;SDS011;36852;45.466;11.066;2024-02-04T10:02:43;85.95;;;56.98;;
23346;SDS011;36852;45.466;11.066;2024-02-04T10:30:47;112.62;;;73.50;;
23346;SDS011;36852;45.466;11.066;2024-02-04T10:33:38;119.93;;;77.05;;
23346;SDS011;36852;45.466;11.066;2024-02-04T10:36:33;121.70;;;79.62;;
23346;SDS011;36852;45.466;11.066;2024-02-04T10:39:27;110.45;;;74.40;;
23346;SDS011;36852;45.466;11.066;2024-02-04T10:42:27;118.02;;;79.37;;
23346;SDS011;36852;45.466;11.066;2024-02-04T10:45:21;119.10;;;74.67;;
23346;SDS011;36852;45.466;11.066;2024-02-04T10:48:24;113.08;;;73.00;;
23346;SDS011;36852;45.466;11.066;2024-02-04T10:51:17;114.53;;;72.30;;
23346;SDS011;36852;45.466;11.066;2024-02-04T10:54:09;116.73;;;71.30;;
23346;SDS011;36852;45.466;11.066;2024-02-04T10:57:01;115.30;;;71.00;;
23346;SDS011;36852;45.466;11.066;2024-02-04T10:59:57;111.85;;;69.53;;
23346;SDS011;36852;45.466;11.066;2024-02-04T11:02:51;113.88;;;70.55;;
23346;SDS011;36852;45.466;11.066;2024-02-04T15:40:24;173.05;;;101.22;;
23346;SDS011;36852;45.466;11.066;2024-02-04T15:49:10;208.75;;;116.88;;
23346;SDS011;36852;45.466;11.066;2024-02-04T15:52:05;195.68;;;111.22;;
23346;SDS011;36852;45.466;11.066;2024-02-04T16:44:37;191.90;;;109.63;;
23346;SDS011;36852;45.466;11.066;2024-02-04T16:47:31;191.68;;;107.27;;
23346;SDS011;36852;45.466;11.066;2024-02-04T16:50:35;186.07;;;104.75;;
23346;SDS011;36852;45.466;11.066;2024-02-04T17:01:39;194.22;;;111.45;;
23346;SDS011;36852;45.466;11.066;2024-02-04T17:04:50;191.68;;;107.05;;
23346;SDS011;36852;45.466;11.066;2024-02-04T17:11:45;195.70;;;107.10;;
23346;SDS011;36852;45.466;11.066;2024-02-04T17:32:06;187.25;;;103.25;;
23346;SDS011;36852;45.466;11.066;2024-02-04T17:35:01;193.85;;;108.07;;
23346;SDS011;36852;45.466;11.066;2024-02-04T17:37:58;201.42;;;107.67;;
23346;SDS011;36852;45.466;11.066;2024-02-04T17:46:56;192.45;;;108.65;;
23346;SDS011;36852;45.466;11.066;2024-02-04T17:49:32;194.17;;;108.63;;
23346;SDS011;36852;45.466;11.066;2024-02-04T17:52:19;199.02;;;107.25;;
23346;SDS011;36852;45.466;11.066;2024-02-04T17:54:57;202.30;;;111.20;;
23346;SDS011;36852;45.466;11.066;2024-02-04T17:57:30;208.55;;;114.37;;
23346;SDS011;36852;45.466;11.066;2024-02-04T18:00:21;205.80;;;114.10;;
23346;SDS011;36852;45.466;11.066;2024-02-04T18:02:50;205.65;;;113.03;;
23346;SDS011;36852;45.466;11.066;2024-02-04T18:05:18;200.35;;;109.95;;
23346;SDS011;36852;45.466;11.066;2024-02-04T18:08:14;200.70;;;107.52;;
23346;SDS011;36852;45.466;11.066;2024-02-04T18:10:46;207.92;;;113.25;;
23346;SDS011;36852;45.466;11.066;2024-02-04T18:13:17;209.30;;;114.45;;
23346;SDS011;36852;45.466;11.066;2024-02-04T18:16:04;211.47;;;112.20;;
23346;SDS011;36852;45.466;11.066;2024-02-04T18:18:43;211.28;;;111.60;;
23346;SDS011;36852;45.466;11.066;2024-02-04T18:21:18;209.30;;;111.20;;
23346;SDS011;36852;45.466;11.066;2024-02-04T18:27:23;199.00;;;107.30;;
23346;SDS011;36852;45.466;11.066;2024-02-04T18:30:11;209.35;;;114.50;;
23346;SDS011;36852;45.466;11.066;2024-02-04T18:36:03;213.97;;;113.72;;
23346;SDS011;36852;45.466;11.066;2024-02-04T18:39:05;216.57;;;115.32;;
23346;SDS011;36852;45.466;11.066;2024-02-04T18:41:59;216.57;;;114.52;;
23346;SDS011;36852;45.466;11.066;2024-02-04T18:44:28;219.40;;;116.22;;
23346;SDS011;36852;45.466;11.066;2024-02-04T18:47:20;218.73;;;118.42;;
23346;SDS011;36852;45.466;11.066;2024-02-04T18:49:58;212.85;;;114.92;;
23346;SDS011;36852;45.466;11.066;2024-02-04T18:52:35;215.82;;;116.50;;
23346;SDS011;36852;45.466;11.066;2024-02-04T18:55:30;225.47;;;115.77;;
23346;SDS011;36852;45.466;11.066;2024-02-04T18:58:19;212.78;;;112.42;;
23346;SDS011;36852;45.466;11.066;2024-02-04T19:00:55;216.80;;;113.55;;
23346;SDS011;36852;45.466;11.066;2024-02-04T19:06:26;214.72;;;109.55;;
23346;SDS011;36852;45.466;11.066;2024-02-04T19:09:25;206.95;;;110.72;;
23346;SDS011;36852;45.466;11.066;2024-02-04T19:12:08;213.32;;;116.17;;
23346;SDS011;36852;45.466;11.066;2024-02-04T19:14:53;216.27;;;114.10;;
23346;SDS011;36852;45.466;11.066;2024-02-04T19:17:46;218.35;;;113.72;;
23346;SDS011;36852;45.466;11.066;2024-02-04T19:20:34;219.53;;;114.05;;
23346;SDS011;36852;45.466;11.066;2024-02-04T19:23:17;210.10;;;114.22;;
23346;SDS011;36852;45.466;11.066;2024-02-04T19:26:07;215.43;;;115.85;;
23346;SDS011;36852;45.466;11.066;2024-02-04T19:29:01;231.23;;;115.77;;
23346;SDS011;36852;45.466;11.066;2024-02-04T19:34:43;230.30;;;117.77;;
23346;SDS011;36852;45.466;11.066;2024-02-04T19:37:31;227.57;;;118.42;;
23346;SDS011;36852;45.466;11.066;2024-02-04T19:40:23;219.35;;;115.57;;
23346;SDS011;36852;45.466;11.066;2024-02-04T19:43:11;225.93;;;119.45;;
23346;SDS011;36852;45.466;11.066;2024-02-04T19:49:16;225.22;;;115.22;;
23346;SDS011;36852;45.466;11.066;2024-02-04T19:52:10;220.22;;;119.62;;
23346;SDS011;36852;45.466;11.066;2024-02-04T19:54:42;223.72;;;118.82;;
23346;SDS011;36852;45.466;11.066;2024-02-04T19:57:14;227.22;;;118.28;;
23346;SDS011;36852;45.466;11.066;2024-02-04T19:59:46;226.73;;;119.47;;
23346;SDS011;36852;45.466;11.066;2024-02-04T20:02:23;229.68;;;124.70;;
23346;SDS011;36852;45.466;11.066;2024-02-04T20:05:09;239.35;;;125.22;;
23346;SDS011;36852;45.466;11.066;2024-02-04T20:07:41;236.95;;;120.57;;
23346;SDS011;36852;45.466;11.066;2024-02-04T20:10:14;243.05;;;124.80;;
23346;SDS011;36852;45.466;11.066;2024-02-04T20:13:08;231.53;;;124.15;;
23346;SDS011;36852;45.466;11.066;2024-02-04T20:15:59;239.10;;;123.95;;
23346;SDS011;36852;45.466;11.066;2024-02-04T20:21:13;230.83;;;122.17;;
23346;SDS011;36852;45.466;11.066;2024-02-04T20:23:42;232.15;;;123.45;;
23346;SDS011;36852;45.466;11.066;2024-02-04T20:26:16;231.07;;;121.55;;
23346;SDS011;36852;45.466;11.066;2024-02-04T20:28:50;241.63;;;124.60;;
23346;SDS011;36852;45.466;11.066;2024-02-04T20:31:36;218.70;;;116.45;;
23346;SDS011;36852;45.466;11.066;2024-02-04T20:42:15;230.20;;;122.10;;
23346;SDS011;36852;45.466;11.066;2024-02-04T20:47:43;234.03;;;121.40;;
23346;SDS011;36852;45.466;11.066;2024-02-04T20:50:33;230.80;;;117.82;;
23346;SDS011;36852;45.466;11.066;2024-02-04T20:53:08;228.30;;;119.17;;
23346;SDS011;36852;45.466;11.066;2024-02-04T20:55:40;222.93;;;120.62;;
23346;SDS011;36852;45.466;11.066;2024-02-04T20:58:30;231.20;;;121.02;;
23346;SDS011;36852;45.466;11.066;2024-02-04T21:01:19;226.60;;;120.50;;
23346;SDS011;36852;45.466;11.066;2024-02-04T21:03:54;231.72;;;123.05;;
23346;SDS011;36852;45.466;11.066;2024-02-04T21:06:23;228.45;;;119.15;;
23346;SDS011;36852;45.466;11.066;2024-02-04T21:08:57;234.92;;;120.90;;
23346;SDS011;36852;45.466;11.066;2024-02-04T21:11:47;228.88;;;118.62;;
23346;SDS011;36852;45.466;11.066;2024-02-04T21:14:20;232.45;;;119.35;;
23346;SDS011;36852;45.466;11.066;2024-02-04T21:16:49;230.43;;;119.62;;
23346;SDS011;36852;45.466;11.066;2024-02-04T21:19:31;230.10;;;117.93;;
23346;SDS011;36852;45.466;11.066;2024-02-04T21:22:07;225.22;;;118.40;;
23346;SDS011;36852;45.466;11.066;2024-02-04T21:33:05;245.95;;;122.55;;
23346;SDS011;36852;45.466;11.066;2024-02-04T21:36:02;243.52;;;124.67;;
23346;SDS011;36852;45.466;11.066;2024-02-04T21:38:39;243.57;;;123.38;;
23346;SDS011;36852;45.466;11.066;2024-02-04T21:41:16;235.80;;;121.22;;
23346;SDS011;36852;45.466;11.066;2024-02-04T21:44:10;230.45;;;115.62;;
23346;SDS011;36852;45.466;11.066;2024-02-04T21:47:01;246.62;;;119.95;;
23346;SDS011;36852;45.466;11.066;2024-02-04T21:49:41;235.00;;;119.08;;
23346;SDS011;36852;45.466;11.066;2024-02-04T21:52:40;239.17;;;120.08;;
23346;SDS011;36852;45.466;11.066;2024-02-04T21:55:09;229.53;;;116.45;;
23346;SDS011;36852;45.466;11.066;2024-02-04T22:01:03;233.40;;;116.25;;
23346;SDS011;36852;45.466;11.066;2024-02-04T22:03:56;230.98;;;119.25;;
23346;SDS011;36852;45.466;11.066;2024-02-04T22:06:28;221.87;;;116.50;;
23346;SDS011;36852;45.466;11.066;2024-02-04T22:09:18;245.48;;;122.90;;
23346;SDS011;36852;45.466;11.066;2024-02-04T22:11:50;240.95;;;120.30;;
23346;SDS011;36852;45.466;11.066;2024-02-04T22:14:21;230.47;;;118.33;;
23346;SDS011;36852;45.466;11.066;2024-02-04T22:17:00;239.70;;;122.40;;
23346;SDS011;36852;45.466;11.066;2024-02-04T22:19:33;233.17;;;119.75;;
23346;SDS011;36852;45.466;11.066;2024-02-04T22:22:21;250.35;;;123.45;;
23346;SDS011;36852;45.466;11.066;2024-02-04T22:25:03;250.93;;;125.00;;
23346;SDS011;36852;45.466;11.066;2024-02-04T22:27:48;234.40;;;120.57;;
23346;SDS011;36852;45.466;11.066;2024-02-04T22:30:19;233.45;;;118.67;;
23346;SDS011;36852;45.466;11.066;2024-02-04T22:32:55;235.78;;;120.02;;
23346;SDS011;36852;45.466;11.066;2024-02-04T22:35:25;255.12;;;125.22;;
23346;SDS011;36852;45.466;11.066;2024-02-04T22:37:55;251.45;;;124.75;;
23346;SDS011;36852;45.466;11.066;2024-02-04T22:40:25;237.45;;;121.62;;
23346;SDS011;36852;45.466;11.066;2024-02-04T22:42:53;242.40;;;125.07;;
23346;SDS011;36852;45.466;11.066;2024-02-04T22:45:23;241.38;;;124.07;;
23346;SDS011;36852;45.466;11.066;2024-02-04T22:48:02;251.52;;;127.22;;
23346;SDS011;36852;45.466;11.066;2024-02-04T22:50:34;246.85;;;121.13;;
23346;SDS011;36852;45.466;11.066;2024-02-04T22:53:07;241.50;;;122.95;;
23346;SDS011;36852;45.466;11.066;2024-02-04T22:55:44;243.70;;;122.40;;
23346;SDS011;36852;45.466;11.066;2024-02-04T22:58:12;240.12;;;122.00;;
23346;SDS011;36852;45.466;11.066;2024-02-04T23:00:41;248.80;;;124.22;;
23346;SDS011;36852;45.466;11.066;2024-02-04T23:03:15;251.27;;;121.77;;
23346;SDS011;36852;45.466;11.066;2024-02-04T23:05:44;244.68;;;121.95;;
23346;SDS011;36852;45.466;11.066;2024-02-04T23:08:30;238.68;;;120.45;;
23346;SDS011;36852;45.466;11.066;2024-02-04T23:11:03;242.50;;;123.07;;
23346;SDS011;36852;45.466;11.066;2024-02-04T23:13:41;244.43;;;121.60;;
23346;SDS011;36852;45.466;11.066;2024-02-04T23:16:10;244.03;;;121.40;;
23346;SDS011;36852;45.466;11.066;2024-02-04T23:18:39;251.55;;;123.18;;
23346;SDS011;36852;45.466;11.066;2024-02-04T23:21:22;236.18;;;122.85;;
23346;SDS011;36852;45.466;11.066;2024-02-04T23:23:52;246.97;;;127.55;;
23346;SDS011;36852;45.466;11.066;2024-02-04T23:26:22;239.12;;;121.97;;